createdAt,value
2018-03-20T00:00:53.568Z,-2.50
2018-03-20T00:03:21.907Z,-2.50
2018-03-20T00:05:50.313Z,-2.50
2018-03-20T00:08:18.669Z,-2.50
2018-03-20T00:10:47.015Z,-2.50
2018-03-20T00:13:15.363Z,-2.50
2018-03-20T00:15:43.732Z,-2.40
2018-03-20T00:18:12.078Z,-2.30
2018-03-20T00:20:40.435Z,-2.30
2018-03-20T00:23:08.792Z,-2.30
2018-03-20T00:25:37.228Z,-2.30
2018-03-20T00:28:05.746Z,-2.30
2018-03-20T00:30:34.584Z,-2.20
2018-03-20T00:33:02.971Z,-2.20
2018-03-20T00:35:31.500Z,-2.10
2018-03-20T00:37:59.853Z,-2.00
2018-03-20T00:40:28.195Z,-1.90
2018-03-20T00:42:56.553Z,-1.90
2018-03-20T00:45:25.025Z,-1.80
2018-03-20T00:47:53.477Z,-1.70
2018-03-20T00:50:21.815Z,-1.60
2018-03-20T00:52:50.457Z,-1.60
2018-03-20T00:55:18.826Z,-1.60
2018-03-20T00:57:47.151Z,-1.60
2018-03-20T01:00:15.509Z,-1.50
2018-03-20T01:02:43.873Z,-1.50
2018-03-20T01:05:12.259Z,-1.40
2018-03-20T01:07:40.663Z,-1.30
2018-03-20T01:10:09.009Z,-1.30
2018-03-20T01:12:37.352Z,-1.30
2018-03-20T01:15:05.758Z,-1.20
2018-03-20T01:17:34.402Z,-1.20
2018-03-20T01:20:02.761Z,-1.10
2018-03-20T01:22:31.108Z,-1.10
2018-03-20T01:24:59.458Z,-1.00
2018-03-20T01:27:27.800Z,-1.00
2018-03-20T01:29:56.143Z,-0.90
2018-03-20T01:32:24.504Z,-0.90
2018-03-20T01:34:52.853Z,-0.90
2018-03-20T01:37:21.200Z,-0.90
2018-03-20T01:39:49.548Z,-0.80
2018-03-20T01:42:17.897Z,-0.90
2018-03-20T01:44:46.247Z,-0.80
2018-03-20T01:47:14.592Z,-0.80
2018-03-20T01:49:42.953Z,-0.80
2018-03-20T01:52:11.302Z,-0.90
2018-03-20T01:54:39.674Z,-0.90
2018-03-20T01:57:08.197Z,-0.90
2018-03-20T01:59:36.879Z,-0.90
2018-03-20T02:02:05.227Z,-1.00
2018-03-20T02:04:33.563Z,-1.00
2018-03-20T02:07:02.038Z,-1.00
2018-03-20T02:09:30.380Z,-1.00
2018-03-20T02:11:58.729Z,-1.00
2018-03-20T02:14:27.105Z,-1.00
2018-03-20T02:16:55.449Z,-1.00
2018-03-20T02:19:23.808Z,-1.00
2018-03-20T02:21:52.148Z,-1.00
2018-03-20T02:24:20.508Z,-0.90
2018-03-20T02:26:48.915Z,-1.00
2018-03-20T02:29:17.649Z,-1.00
2018-03-20T02:31:46.073Z,-1.00
2018-03-20T02:34:15.177Z,-1.00
2018-03-20T02:36:43.512Z,-1.00
2018-03-20T02:39:11.946Z,-1.00
2018-03-20T02:41:40.563Z,-1.00
2018-03-20T02:44:08.915Z,-1.10
2018-03-20T02:46:37.316Z,-1.10
2018-03-20T02:49:05.641Z,-1.10
2018-03-20T02:51:33.979Z,-1.10
2018-03-20T02:54:03.074Z,-1.20
2018-03-20T02:56:31.408Z,-1.20
2018-03-20T02:59:00.233Z,-1.10
2018-03-20T03:01:28.678Z,-1.10
2018-03-20T03:03:57.204Z,-1.10
2018-03-20T03:06:25.553Z,-1.20
2018-03-20T03:08:54.018Z,-1.10
2018-03-20T03:11:22.471Z,-1.10
2018-03-20T03:13:50.867Z,-1.00
2018-03-20T03:16:19.234Z,-1.00
2018-03-20T03:18:47.576Z,-1.00
2018-03-20T03:21:15.944Z,-1.00
2018-03-20T03:23:44.316Z,-1.00
2018-03-20T03:26:12.640Z,-0.90
2018-03-20T03:28:40.998Z,-1.00
2018-03-20T03:31:09.447Z,-1.00
2018-03-20T03:33:37.791Z,-0.90
2018-03-20T03:36:06.312Z,-0.80
2018-03-20T03:38:34.671Z,-0.80
2018-03-20T03:41:03.017Z,-0.70
2018-03-20T03:43:31.383Z,-0.70
2018-03-20T03:45:59.730Z,-0.60
2018-03-20T03:48:28.126Z,-0.60
2018-03-20T03:50:56.484Z,-0.50
2018-03-20T03:53:24.932Z,-0.50
2018-03-20T03:55:53.237Z,-0.50
2018-03-20T03:58:21.575Z,-0.50
2018-03-20T04:00:49.922Z,-0.50
2018-03-20T04:03:18.286Z,-0.60
2018-03-20T04:05:46.664Z,-0.60
2018-03-20T04:08:15.081Z,-0.60
2018-03-20T04:10:43.445Z,-0.60
2018-03-20T04:13:12.048Z,-0.60
2018-03-20T04:15:40.404Z,-0.60
2018-03-20T04:18:09.002Z,-0.60
2018-03-20T04:20:37.354Z,-0.60
2018-03-20T04:23:05.693Z,-0.60
2018-03-20T04:25:34.043Z,-0.50
2018-03-20T04:28:02.396Z,-0.50
2018-03-20T04:30:30.820Z,-0.50
2018-03-20T04:32:59.196Z,-0.40
2018-03-20T04:35:27.704Z,-0.40
2018-03-20T04:37:56.034Z,-0.40
2018-03-20T04:40:24.389Z,-0.40
2018-03-20T04:42:52.749Z,-0.40
2018-03-20T04:45:21.091Z,-0.30
2018-03-20T04:47:49.890Z,-0.30
2018-03-20T04:50:18.271Z,-0.30
2018-03-20T04:52:46.908Z,-0.20
2018-03-20T04:55:15.280Z,-0.30
2018-03-20T04:57:43.632Z,-0.30
2018-03-20T05:00:11.975Z,-0.30
2018-03-20T05:02:40.449Z,-0.20
2018-03-20T05:05:09.123Z,-0.20
2018-03-20T05:07:37.488Z,-0.20
2018-03-20T05:10:05.835Z,-0.20
2018-03-20T05:12:34.198Z,-0.20
2018-03-20T05:15:02.598Z,-0.10
2018-03-20T05:17:30.916Z,-0.10
2018-03-20T05:20:05.263Z,-0.10
2018-03-20T05:22:39.424Z,0.00
2018-03-20T05:25:07.881Z,0.00
2018-03-20T05:27:36.538Z,0.00
2018-03-20T05:30:04.882Z,0.00
2018-03-20T05:32:33.220Z,0.10
2018-03-20T05:35:01.637Z,0.10
2018-03-20T05:37:30.581Z,0.10
2018-03-20T05:39:58.945Z,0.20
2018-03-20T05:42:27.291Z,0.20
2018-03-20T05:44:55.739Z,0.20
2018-03-20T05:47:29.770Z,0.20
2018-03-20T05:50:03.784Z,0.20
2018-03-20T05:52:32.626Z,0.20
2018-03-20T05:55:00.968Z,0.30
2018-03-20T05:57:29.324Z,0.30
2018-03-20T05:59:57.749Z,0.30
2018-03-20T06:02:26.705Z,0.40
2018-03-20T06:04:55.038Z,0.40
2018-03-20T06:07:23.409Z,0.40
2018-03-20T06:09:51.758Z,0.40
2018-03-20T06:12:20.192Z,0.40
2018-03-20T06:14:48.548Z,0.40
2018-03-20T06:17:17.132Z,0.50
2018-03-20T06:19:45.515Z,0.50
2018-03-20T06:22:13.863Z,0.60
2018-03-20T06:24:42.252Z,0.60
2018-03-20T06:27:10.630Z,0.60
2018-03-20T06:29:38.973Z,0.70
2018-03-20T06:32:07.346Z,0.70
2018-03-20T06:34:35.714Z,0.70
2018-03-20T06:37:04.685Z,0.80
2018-03-20T06:39:33.023Z,0.80
2018-03-20T06:42:01.368Z,0.80
2018-03-20T06:44:29.724Z,0.80
2018-03-20T06:46:58.064Z,0.90
2018-03-20T06:49:26.417Z,0.90
2018-03-20T06:51:54.760Z,0.90
2018-03-20T06:54:23.124Z,0.90
2018-03-20T06:56:51.496Z,1.00
2018-03-20T06:59:19.825Z,1.00
2018-03-20T07:01:48.172Z,1.10
2018-03-20T07:04:16.539Z,1.10
2018-03-20T07:06:45.179Z,1.10
2018-03-20T07:09:13.880Z,1.10
2018-03-20T07:11:42.226Z,1.20
2018-03-20T07:14:10.601Z,1.30
2018-03-20T07:16:38.955Z,1.30
2018-03-20T07:19:07.427Z,1.30
2018-03-20T07:21:35.801Z,1.40
2018-03-20T07:24:05.301Z,1.50
2018-03-20T07:26:33.788Z,1.60
2018-03-20T07:29:02.312Z,1.50
2018-03-20T07:31:30.803Z,1.60
2018-03-20T07:33:59.154Z,1.60
2018-03-20T07:36:27.531Z,1.60
2018-03-20T07:38:55.964Z,1.60
2018-03-20T07:41:24.295Z,1.70
2018-03-20T07:43:53.038Z,1.60
2018-03-20T07:46:21.425Z,1.60
2018-03-20T07:48:49.744Z,1.70
2018-03-20T07:51:18.200Z,1.70
2018-03-20T07:53:46.569Z,1.70
2018-03-20T07:56:14.917Z,1.70
2018-03-20T07:58:43.283Z,1.70
2018-03-20T08:01:11.908Z,1.70
2018-03-20T08:03:40.260Z,1.80
2018-03-20T08:06:08.606Z,1.90
2018-03-20T08:08:36.991Z,1.90
2018-03-20T08:11:05.312Z,2.00
2018-03-20T08:13:33.656Z,2.10
2018-03-20T08:16:02.010Z,2.20
2018-03-20T08:18:30.371Z,2.30
2018-03-20T08:20:58.789Z,2.40
2018-03-20T08:23:27.162Z,2.40
2018-03-20T08:25:55.581Z,2.40
2018-03-20T08:28:23.931Z,2.50
2018-03-20T08:30:52.304Z,2.60
2018-03-20T08:33:20.633Z,2.70
2018-03-20T08:35:48.989Z,2.70
2018-03-20T08:38:17.324Z,2.80
2018-03-20T08:40:45.664Z,2.90
2018-03-20T08:43:14.015Z,2.90
2018-03-20T08:45:42.536Z,2.90
2018-03-20T08:48:10.873Z,3.10
2018-03-20T08:50:39.518Z,3.20
2018-03-20T08:53:08.014Z,3.30
2018-03-20T08:55:36.349Z,3.40
2018-03-20T08:58:04.793Z,3.40
2018-03-20T09:00:33.186Z,3.40
2018-03-20T09:03:01.489Z,3.40
2018-03-20T09:05:29.812Z,3.50
2018-03-20T09:07:58.153Z,3.50
2018-03-20T09:10:26.481Z,3.40
2018-03-20T09:12:54.827Z,3.50
2018-03-20T09:15:23.159Z,3.60
2018-03-20T09:17:51.537Z,3.70
2018-03-20T09:20:19.872Z,3.70
2018-03-20T09:22:48.208Z,3.70
2018-03-20T09:25:16.571Z,3.70
2018-03-20T09:27:44.927Z,3.80
2018-03-20T09:30:13.281Z,3.80
2018-03-20T09:32:41.608Z,3.80
2018-03-20T09:35:09.976Z,3.90
2018-03-20T09:37:38.303Z,4.10
2018-03-20T09:40:06.635Z,4.30
2018-03-20T09:42:34.963Z,4.30
2018-03-20T09:45:03.343Z,4.50
2018-03-20T09:47:31.816Z,4.60
2018-03-20T09:50:00.487Z,4.70
2018-03-20T09:52:28.824Z,4.90
2018-03-20T09:54:57.197Z,5.00
2018-03-20T09:57:25.528Z,5.00
2018-03-20T09:59:54.510Z,4.90
2018-03-20T10:02:22.859Z,5.10
2018-03-20T10:04:51.649Z,5.50
2018-03-20T10:07:19.977Z,6.00
2018-03-20T10:09:48.331Z,6.30
2018-03-20T10:12:16.668Z,6.30
2018-03-20T10:14:45.373Z,6.50
2018-03-20T10:17:13.722Z,6.60
2018-03-20T10:19:42.070Z,7.00
2018-03-20T10:22:10.427Z,7.70
2018-03-20T10:24:38.761Z,8.40
2018-03-20T10:27:07.108Z,8.70
2018-03-20T10:29:35.472Z,8.80
2018-03-20T10:32:03.844Z,9.10
2018-03-20T10:34:32.248Z,9.20
2018-03-20T10:37:00.598Z,9.40
2018-03-20T10:39:28.960Z,9.90
2018-03-20T10:41:57.298Z,10.00
2018-03-20T10:44:25.839Z,10.30
2018-03-20T10:46:54.173Z,10.70
2018-03-20T10:49:22.664Z,10.70
2018-03-20T10:51:51.005Z,10.70
2018-03-20T10:54:19.440Z,10.50
2018-03-20T10:56:47.839Z,10.00
2018-03-20T10:59:16.543Z,9.80
2018-03-20T11:01:45.777Z,10.20
2018-03-20T11:04:14.180Z,10.20
2018-03-20T11:06:42.515Z,10.50
2018-03-20T11:09:10.856Z,10.90
2018-03-20T11:11:39.197Z,11.40
2018-03-20T11:14:07.582Z,11.60
2018-03-20T11:16:35.934Z,12.00
2018-03-20T11:19:04.282Z,12.40
2018-03-20T11:21:32.720Z,12.30
2018-03-20T11:24:01.652Z,11.20
2018-03-20T11:26:29.983Z,11.10
2018-03-20T11:28:58.526Z,10.50
2018-03-20T11:31:27.115Z,10.60
2018-03-20T11:33:56.036Z,10.90
2018-03-20T11:36:24.391Z,11.40
2018-03-20T11:38:52.727Z,11.90
2018-03-20T11:41:21.090Z,12.30
2018-03-20T11:43:50.090Z,12.70
2018-03-20T11:46:18.657Z,13.20
2018-03-20T11:48:47.046Z,13.20
2018-03-20T11:51:15.397Z,12.80
2018-03-20T11:53:43.785Z,11.90
2018-03-20T11:56:12.153Z,11.50
2018-03-20T11:58:40.528Z,11.20
2018-03-20T12:01:08.889Z,11.20
2018-03-20T12:03:37.220Z,11.40
2018-03-20T12:06:05.588Z,11.80
2018-03-20T12:08:45.616Z,11.90
2018-03-20T12:11:14.192Z,12.10
2018-03-20T12:13:42.564Z,12.10
2018-03-20T12:16:10.989Z,12.30
2018-03-20T12:18:39.319Z,12.20
2018-03-20T12:21:07.743Z,12.30
2018-03-20T12:23:36.086Z,12.70
2018-03-20T12:26:04.431Z,13.30
2018-03-20T12:28:32.782Z,13.40
2018-03-20T12:31:01.134Z,12.90
2018-03-20T12:33:29.562Z,12.10
2018-03-20T12:35:57.905Z,11.50
2018-03-20T12:38:26.258Z,11.30
2018-03-20T12:40:54.613Z,11.50
2018-03-20T12:43:22.999Z,11.70
2018-03-20T12:45:51.481Z,12.00
2018-03-20T12:48:19.916Z,11.80
2018-03-20T12:50:48.261Z,11.20
2018-03-20T12:53:16.608Z,10.90
2018-03-20T12:55:44.954Z,10.90
2018-03-20T12:58:13.287Z,11.30
2018-03-20T13:00:41.648Z,11.60
2018-03-20T13:03:10.049Z,11.80
2018-03-20T13:05:38.727Z,12.10
2018-03-20T13:08:07.086Z,12.60
2018-03-20T13:10:35.415Z,13.30
2018-03-20T13:13:03.774Z,13.80
2018-03-20T13:15:32.172Z,14.10
2018-03-20T13:18:00.868Z,14.70
2018-03-20T13:20:29.413Z,15.10
2018-03-20T13:22:57.749Z,15.60
2018-03-20T13:25:26.715Z,16.50
2018-03-20T13:27:55.090Z,16.90
2018-03-20T13:30:23.564Z,17.40
2018-03-20T13:32:52.120Z,17.30
2018-03-20T13:35:21.258Z,17.10
2018-03-20T13:37:49.668Z,17.10
2018-03-20T13:40:18.045Z,16.40
2018-03-20T13:42:46.564Z,15.90
2018-03-20T13:45:15.030Z,15.80
2018-03-20T13:47:43.438Z,16.50
2018-03-20T13:50:11.814Z,17.10
2018-03-20T13:52:40.606Z,17.50
2018-03-20T13:55:08.989Z,17.60
2018-03-20T13:57:37.384Z,17.50
2018-03-20T14:00:05.851Z,17.00
2018-03-20T14:02:34.239Z,17.00
2018-03-20T14:05:03.765Z,16.60
2018-03-20T14:07:32.196Z,16.10
2018-03-20T14:10:00.532Z,15.60
2018-03-20T14:12:28.930Z,15.60
2018-03-20T14:14:57.325Z,16.10
2018-03-20T14:17:25.668Z,16.60
2018-03-20T14:19:54.120Z,17.10
2018-03-20T14:22:22.516Z,17.40
2018-03-20T14:24:50.891Z,18.00
2018-03-20T14:27:19.257Z,18.10
2018-03-20T14:29:48.276Z,18.20
2018-03-20T14:32:16.624Z,18.10
2018-03-20T14:34:45.053Z,18.10
2018-03-20T14:37:13.480Z,18.00
2018-03-20T14:39:41.883Z,18.30
2018-03-20T14:42:10.497Z,18.60
2018-03-20T14:44:38.858Z,18.60
2018-03-20T14:47:07.250Z,18.30
2018-03-20T14:49:35.726Z,18.30
2018-03-20T14:52:04.094Z,18.00
2018-03-20T14:54:32.464Z,18.00
2018-03-20T14:57:00.791Z,18.20
2018-03-20T14:59:29.785Z,18.40
2018-03-20T15:01:58.147Z,18.70
2018-03-20T15:04:26.520Z,18.90
2018-03-20T15:06:54.897Z,19.10
2018-03-20T15:09:23.265Z,18.80
2018-03-20T15:11:51.613Z,18.00
2018-03-20T15:14:19.954Z,17.90
2018-03-20T15:16:48.545Z,17.90
2018-03-20T15:19:16.885Z,18.30
2018-03-20T15:21:45.254Z,18.60
2018-03-20T15:24:13.764Z,18.40
2018-03-20T15:26:42.134Z,18.40
2018-03-20T15:29:10.490Z,18.20
2018-03-20T15:31:38.853Z,18.40
2018-03-20T15:34:07.703Z,18.50
2018-03-20T15:36:36.214Z,18.60
2018-03-20T15:39:04.590Z,18.50
2018-03-20T15:41:32.953Z,18.30
2018-03-20T15:44:01.361Z,18.00
2018-03-20T15:46:29.726Z,17.80
2018-03-20T15:48:58.158Z,17.40
2018-03-20T15:51:26.533Z,16.80
2018-03-20T15:53:54.863Z,15.90
2018-03-20T15:56:23.269Z,14.70
2018-03-20T15:58:51.736Z,14.30
2018-03-20T16:01:20.088Z,14.20
2018-03-20T16:03:48.460Z,14.00
2018-03-20T16:06:16.806Z,14.00
2018-03-20T16:08:45.153Z,14.00
2018-03-20T16:11:13.520Z,14.00
2018-03-20T16:13:41.875Z,13.70
2018-03-20T16:16:10.248Z,13.50
2018-03-20T16:18:38.723Z,13.20
2018-03-20T16:21:07.064Z,12.80
2018-03-20T16:23:35.421Z,12.70
2018-03-20T16:26:03.788Z,12.70
2018-03-20T16:28:32.121Z,12.50
2018-03-20T16:31:00.505Z,12.40
2018-03-20T16:33:28.837Z,12.40
2018-03-20T16:35:57.209Z,12.20
2018-03-20T16:38:25.566Z,12.10
2018-03-20T16:40:53.905Z,12.00
2018-03-20T16:43:22.438Z,11.60
2018-03-20T16:45:50.783Z,11.50
2018-03-20T16:48:19.159Z,11.20
2018-03-20T16:50:47.564Z,10.90
2018-03-20T16:53:15.909Z,10.40
2018-03-20T16:55:44.249Z,9.90
2018-03-20T16:58:12.594Z,9.50
2018-03-20T17:00:40.950Z,9.00
2018-03-20T17:03:09.312Z,8.60
2018-03-20T17:05:37.660Z,8.20
2018-03-20T17:08:05.990Z,7.90
2018-03-20T17:10:34.555Z,7.60
2018-03-20T17:13:03.001Z,7.30
2018-03-20T17:15:31.392Z,7.10
2018-03-20T17:17:59.743Z,6.80
2018-03-20T17:20:28.137Z,6.60
2018-03-20T17:22:56.477Z,6.50
2018-03-20T17:25:24.941Z,6.30
2018-03-20T17:27:53.366Z,6.10
2018-03-20T17:30:21.696Z,5.90
2018-03-20T17:32:50.057Z,5.70
2018-03-20T17:35:18.443Z,5.60
2018-03-20T17:37:46.815Z,5.50
2018-03-20T17:40:15.154Z,5.30
2018-03-20T17:42:43.497Z,5.20
2018-03-20T17:45:12.002Z,5.10
2018-03-20T17:47:40.323Z,5.00
2018-03-20T17:50:08.691Z,4.90
2018-03-20T17:52:37.027Z,4.80
2018-03-20T17:55:05.370Z,4.60
2018-03-20T17:57:33.813Z,4.60
2018-03-20T18:00:02.161Z,4.50
2018-03-20T18:02:30.641Z,4.40
2018-03-20T18:04:59.008Z,4.30
2018-03-20T18:07:27.354Z,4.20
2018-03-20T18:09:55.714Z,4.10
2018-03-20T18:12:24.069Z,4.10
2018-03-20T18:14:52.429Z,4.10
2018-03-20T18:17:20.793Z,4.00
2018-03-20T18:19:49.198Z,4.00
2018-03-20T18:22:17.565Z,3.90
2018-03-20T18:24:45.979Z,3.80
2018-03-20T18:27:14.319Z,3.70
2018-03-20T18:29:42.665Z,3.70
2018-03-20T18:32:10.996Z,3.60
2018-03-20T18:34:39.424Z,3.60
2018-03-20T18:37:07.763Z,3.50
2018-03-20T18:39:36.114Z,3.40
2018-03-20T18:42:04.789Z,3.40
2018-03-20T18:44:33.139Z,3.30
2018-03-20T18:47:02.277Z,3.30
2018-03-20T18:49:30.630Z,3.30
2018-03-20T18:51:59.044Z,3.50
2018-03-20T18:54:27.538Z,3.20
2018-03-20T18:56:55.948Z,3.20
2018-03-20T18:59:24.338Z,3.10
2018-03-20T19:01:52.691Z,3.10
2018-03-20T19:04:21.256Z,3.00
2018-03-20T19:06:49.624Z,3.00
2018-03-20T19:09:18.048Z,2.90
2018-03-20T19:11:46.377Z,2.90
2018-03-20T19:14:14.808Z,2.80
2018-03-20T19:16:43.161Z,2.70
2018-03-20T19:19:11.488Z,2.70
2018-03-20T19:21:39.893Z,2.70
2018-03-20T19:24:08.648Z,2.70
2018-03-20T19:26:37.101Z,2.60
2018-03-20T19:29:05.507Z,2.60
2018-03-20T19:31:33.972Z,2.60
2018-03-20T19:34:02.325Z,2.60
2018-03-20T19:36:30.666Z,2.60
2018-03-20T19:38:59.032Z,2.60
2018-03-20T19:41:27.482Z,2.50
2018-03-20T19:43:55.938Z,2.50
2018-03-20T19:46:24.277Z,2.50
2018-03-20T19:48:52.743Z,2.40
2018-03-20T19:51:21.110Z,2.40
2018-03-20T19:53:49.486Z,2.40
2018-03-20T19:56:17.921Z,2.40
2018-03-20T19:58:46.278Z,2.30
2018-03-20T20:01:14.622Z,2.30
2018-03-20T20:03:43.008Z,2.30
2018-03-20T20:06:11.445Z,2.20
2018-03-20T20:08:40.062Z,2.20
2018-03-20T20:11:08.390Z,2.10
2018-03-20T20:13:36.773Z,2.10
2018-03-20T20:16:05.488Z,2.10
2018-03-20T20:18:34.326Z,2.10
2018-03-20T20:21:02.654Z,2.00
2018-03-20T20:23:31.106Z,2.00
2018-03-20T20:25:59.683Z,2.00
2018-03-20T20:28:28.057Z,1.90
2018-03-20T20:30:56.426Z,1.90
2018-03-20T20:33:24.902Z,1.90
2018-03-20T20:35:53.249Z,1.80
2018-03-20T20:38:21.607Z,1.80
2018-03-20T20:40:50.136Z,1.70
2018-03-20T20:43:18.482Z,1.70
2018-03-20T20:45:46.855Z,1.70
2018-03-20T20:48:15.238Z,1.70
2018-03-20T20:50:43.587Z,1.60
2018-03-20T20:53:11.926Z,1.60
2018-03-20T20:55:40.309Z,1.50
2018-03-20T20:58:08.726Z,1.50
2018-03-20T21:00:37.052Z,1.50
2018-03-20T21:03:05.419Z,1.50
2018-03-20T21:05:33.768Z,1.50
2018-03-20T21:08:02.207Z,1.40
2018-03-20T21:10:30.519Z,1.40
2018-03-20T21:12:58.960Z,1.40
2018-03-20T21:15:27.463Z,1.30
2018-03-20T21:17:55.977Z,1.30
2018-03-20T21:20:24.301Z,1.30
2018-03-20T21:22:52.910Z,1.30
2018-03-20T21:25:21.438Z,1.20
2018-03-20T21:27:50.103Z,1.20
2018-03-20T21:30:18.464Z,1.20
2018-03-20T21:32:46.847Z,1.20
2018-03-20T21:35:15.220Z,1.10
2018-03-20T21:37:43.627Z,1.10
2018-03-20T21:40:12.435Z,1.00
2018-03-20T21:42:40.819Z,1.00
2018-03-20T21:45:09.200Z,0.90
2018-03-20T21:47:37.560Z,0.90
2018-03-20T21:50:05.913Z,0.80
2018-03-20T21:52:34.699Z,0.80
2018-03-20T21:55:03.039Z,0.70
2018-03-20T21:57:31.404Z,0.70
2018-03-20T21:59:59.758Z,0.60
2018-03-20T22:02:28.116Z,0.60
2018-03-20T22:04:56.708Z,0.50
2018-03-20T22:07:25.335Z,0.40
2018-03-20T22:09:53.662Z,0.30
2018-03-20T22:12:22.046Z,0.30
2018-03-20T22:14:50.388Z,0.20
2018-03-20T22:17:18.789Z,0.20
2018-03-20T22:19:47.144Z,0.20
2018-03-20T22:22:15.495Z,0.20
2018-03-20T22:24:43.842Z,0.20
2018-03-20T22:27:12.173Z,0.20
2018-03-20T22:29:40.550Z,0.10
2018-03-20T22:32:08.920Z,0.10
2018-03-20T22:34:37.252Z,0.00
2018-03-20T22:37:05.665Z,0.00
2018-03-20T22:39:33.999Z,0.00
2018-03-20T22:42:02.651Z,-0.10
2018-03-20T22:44:31.000Z,-0.10
2018-03-20T22:46:59.365Z,-0.10
2018-03-20T22:49:27.752Z,-0.20
2018-03-20T22:51:56.110Z,-0.10
2018-03-20T22:54:24.444Z,-0.20
2018-03-20T22:56:52.775Z,-0.10
2018-03-20T22:59:21.141Z,-0.10
2018-03-20T23:01:49.483Z,-0.20
2018-03-20T23:04:17.815Z,-0.20
2018-03-20T23:06:46.186Z,-0.10
2018-03-20T23:09:14.531Z,-0.20
2018-03-20T23:11:43.133Z,-0.20
2018-03-20T23:14:11.529Z,-0.20
2018-03-20T23:16:39.836Z,-0.20
2018-03-20T23:19:08.166Z,-0.20
2018-03-20T23:21:36.822Z,-0.20
2018-03-20T23:24:05.358Z,-0.20
2018-03-20T23:26:33.708Z,-0.20
2018-03-20T23:29:02.059Z,-0.20
2018-03-20T23:31:30.395Z,-0.30
2018-03-20T23:33:58.748Z,-0.30
2018-03-20T23:36:27.104Z,-0.40
2018-03-20T23:38:55.638Z,-0.50
2018-03-20T23:41:24.003Z,-0.50
2018-03-20T23:43:52.349Z,-0.50
2018-03-20T23:46:20.702Z,-0.60
2018-03-20T23:48:49.032Z,-0.60
2018-03-20T23:51:17.481Z,-0.60
2018-03-20T23:53:45.824Z,-0.60
2018-03-20T23:56:14.180Z,-0.70
2018-03-20T23:58:42.517Z,-0.70
